Time;durP1;ratioP1;P1;durP2;ratioP2;P2;SDS_P1;SDS_P2;PMS_P1;PMS_P2;Temp;Humidity;BMP_temperature;BMP_pressure;BME280_temperature;BME280_humidity;BME280_pressure;Samples;Min_cycle;Max_cycle;Signal;HPM_P1;HPM_P2
2023/08/11 00:01:33;;;;;;;3.60;2.83;;;;;;;;;;5055470;28;20856;-69
2023/08/11 00:03:59;;;;;;;3.43;3.13;;;;;;;;;;5055222;28;20396;-70
2023/08/11 00:06:25;;;;;;;3.10;2.80;;;;;;;;;;5054889;28;20444;-71
2023/08/11 00:08:55;;;;;;;3.70;3.27;;;;;;;;;;5055442;28;20405;-70
2023/08/11 00:11:22;;;;;;;3.70;3.40;;;;;;;;;;5054802;28;20410;-69
2023/08/11 00:13:48;;;;;;;3.23;2.93;;;;;;;;;;5050936;28;20401;-69
2023/08/11 00:16:14;;;;;;;3.73;3.30;;;;;;;;;;5054749;28;20452;-69
2023/08/11 00:18:40;;;;;;;3.20;2.90;;;;;;;;;;5054420;28;20401;-71
2023/08/11 00:21:07;;;;;;;3.67;3.13;;;;;;;;;;5054546;28;20394;-71
2023/08/11 00:23:35;;;;;;;4.10;3.60;;;;;;;;;;5054245;28;20484;-69
2023/08/11 00:26:01;;;;;;;3.53;3.23;;;;;;;;;;5055153;28;20452;-69
2023/08/11 00:28:27;;;;;;;3.40;3.10;;;;;;;;;;5054740;28;20437;-70
2023/08/11 00:30:54;;;;;;;3.17;2.80;;;;;;;;;;5055051;28;20424;-69
2023/08/11 00:33:20;;;;;;;3.17;2.80;;;;;;;;;;5054682;28;20432;-69
2023/08/11 00:35:46;;;;;;;2.90;2.67;;;;;;;;;;5054409;28;20405;-70
2023/08/11 00:38:12;;;;;;;3.20;2.90;;;;;;;;;;5053695;28;20460;-68
2023/08/11 00:40:38;;;;;;;4.03;3.63;;;;;;;;;;5037024;28;20413;-69
2023/08/11 00:43:04;;;;;;;3.43;2.93;;;;;;;;;;5054604;28;20398;-68
2023/08/11 00:45:30;;;;;;;3.50;3.20;;;;;;;;;;5054520;28;20488;-69
2023/08/11 00:47:56;;;;;;;3.27;2.97;;;;;;;;;;5054127;28;20437;-68
2023/08/11 00:50:23;;;;;;;3.30;3.00;;;;;;;;;;5054746;28;20430;-69
2023/08/11 00:52:50;;;;;;;3.73;2.93;;;;;;;;;;5054469;28;20401;-70
2023/08/11 00:55:18;;;;;;;5.00;3.77;;;;;;;;;;5054683;28;20901;-69
2023/08/11 00:57:45;;;;;;;3.60;3.30;;;;;;;;;;5054421;28;20516;-68
2023/08/11 01:00:12;;;;;;;3.40;3.10;;;;;;;;;;5054183;28;20406;-69
2023/08/11 01:02:42;;;;;;;5.17;4.07;;;;;;;;;;5054164;28;20393;-69
2023/08/11 01:05:09;;;;;;;3.23;2.83;;;;;;;;;;5054102;28;20789;-69
2023/08/11 01:07:40;;;;;;;8.90;3.40;;;;;;;;;;5053822;28;20417;-69
2023/08/11 01:10:20;;;;;;;3.43;3.10;;;;;;;;;;5054100;28;20405;-69
2023/08/11 01:12:49;;;;;;;3.93;3.53;;;;;;;;;;5054028;28;20398;-68
2023/08/11 01:15:39;;;;;;;3.27;3.00;;;;;;;;;;5053938;28;20904;-68
2023/08/11 01:18:06;;;;;;;3.70;3.40;;;;;;;;;;5045063;28;20453;-68
2023/08/11 01:20:33;;;;;;;3.67;3.03;;;;;;;;;;5054058;28;20500;-68
2023/08/11 01:23:00;;;;;;;3.53;3.10;;;;;;;;;;5053801;28;20483;-68
2023/08/11 01:25:26;;;;;;;3.53;3.23;;;;;;;;;;5053772;28;20416;-69
2023/08/11 01:27:57;;;;;;;4.40;3.40;;;;;;;;;;5053669;28;20421;-68
2023/08/11 01:30:23;;;;;;;3.80;3.40;;;;;;;;;;5053688;28;20538;-68
2023/08/11 01:32:52;;;;;;;3.10;2.80;;;;;;;;;;5053577;28;20412;-69
2023/08/11 01:35:19;;;;;;;4.10;3.10;;;;;;;;;;5053490;28;20413;-69
2023/08/11 01:37:45;;;;;;;3.90;3.20;;;;;;;;;;5053252;28;20448;-68
2023/08/11 01:40:13;;;;;;;4.27;3.37;;;;;;;;;;5053378;28;20402;-68
2023/08/11 01:42:40;;;;;;;3.47;3.17;;;;;;;;;;5053702;28;20448;-68
2023/08/11 01:45:07;;;;;;;3.63;3.10;;;;;;;;;;5053269;28;20408;-70
2023/08/11 01:47:35;;;;;;;3.70;3.40;;;;;;;;;;5053513;28;20440;-69
2023/08/11 01:50:02;;;;;;;4.30;3.10;;;;;;;;;;5052965;28;20402;-69
2023/08/11 01:52:29;;;;;;;3.20;2.90;;;;;;;;;;5053336;28;20409;-68
2023/08/11 01:54:55;;;;;;;4.57;3.57;;;;;;;;;;5053185;28;20451;-68
2023/08/11 01:57:21;;;;;;;3.77;3.47;;;;;;;;;;5053045;28;20449;-69
2023/08/11 01:59:48;;;;;;;3.17;2.97;;;;;;;;;;5053178;28;20489;-69
2023/08/11 02:02:14;;;;;;;4.30;3.70;;;;;;;;;;5052995;28;20463;-69
2023/08/11 02:04:40;;;;;;;3.87;3.40;;;;;;;;;;5052672;28;20401;-69
2023/08/11 02:07:06;;;;;;;5.20;3.77;;;;;;;;;;5052980;28;20494;-69
2023/08/11 02:09:32;;;;;;;4.47;3.53;;;;;;;;;;5034958;28;20417;-70
2023/08/11 02:11:58;;;;;;;3.90;3.50;;;;;;;;;;5053080;28;20463;-70
2023/08/11 02:14:24;;;;;;;4.00;3.70;;;;;;;;;;5052793;28;20413;-70
2023/08/11 02:16:50;;;;;;;5.23;3.40;;;;;;;;;;5053191;28;20997;-70
2023/08/11 02:19:16;;;;;;;6.83;4.07;;;;;;;;;;5052222;28;20401;-70
2023/08/11 02:21:42;;;;;;;4.60;4.00;;;;;;;;;;5052600;28;20770;-69
2023/08/11 02:24:08;;;;;;;4.47;3.73;;;;;;;;;;5052682;28;20404;-70
2023/08/11 02:26:34;;;;;;;3.97;3.30;;;;;;;;;;5052583;28;20854;-70
2023/08/11 02:29:00;;;;;;;3.40;3.10;;;;;;;;;;5053083;28;20436;-70
2023/08/11 02:31:26;;;;;;;4.00;3.70;;;;;;;;;;5052679;28;20439;-68
2023/08/11 02:33:52;;;;;;;3.90;3.60;;;;;;;;;;5052508;28;20909;-70
2023/08/11 02:36:20;;;;;;;4.43;3.97;;;;;;;;;;5052167;28;20472;-67
2023/08/11 02:38:46;;;;;;;4.53;4.07;;;;;;;;;;5048780;28;20407;-70
2023/08/11 02:41:12;;;;;;;4.90;4.30;;;;;;;;;;5052402;28;20405;-68
2023/08/11 02:43:38;;;;;;;3.80;3.27;;;;;;;;;;5052379;28;20400;-68
2023/08/11 02:46:05;;;;;;;6.37;4.00;;;;;;;;;;5052405;28;20424;-69
2023/08/11 02:48:33;;;;;;;5.03;4.60;;;;;;;;;;5052157;28;20431;-69
2023/08/11 02:50:59;;;;;;;4.67;4.27;;;;;;;;;;5052218;28;20427;-69
2023/08/11 02:53:25;;;;;;;3.83;3.43;;;;;;;;;;5052488;28;20431;-67
2023/08/11 02:55:51;;;;;;;4.60;4.20;;;;;;;;;;5052317;28;20393;-69
2023/08/11 02:58:17;;;;;;;4.33;3.93;;;;;;;;;;5052272;28;20813;-69
2023/08/11 03:00:45;;;;;;;5.50;4.40;;;;;;;;;;5052400;28;20397;-70
2023/08/11 03:03:11;;;;;;;4.77;4.30;;;;;;;;;;5056005;28;20405;-68
2023/08/11 03:05:37;;;;;;;4.83;4.00;;;17.40;99.90;;;;;;5056300;28;20407;-69
2023/08/11 03:08:02;;;;;;;3.90;3.43;;;17.40;99.90;;;;;;5056221;28;20407;-70
2023/08/11 03:10:28;;;;;;;5.70;4.57;;;17.40;99.90;;;;;;5056470;28;20547;-70
2023/08/11 03:12:54;;;;;;;3.73;3.40;;;17.30;99.90;;;;;;5056474;28;20594;-69
2023/08/11 03:15:19;;;;;;;4.27;3.87;;;17.20;99.90;;;;;;5056245;28;20198;-69
2023/08/11 03:17:45;;;;;;;3.83;3.53;;;17.20;99.90;;;;;;5055958;28;20206;-70
2023/08/11 03:20:20;;;;;;;4.73;4.33;;;17.20;99.90;;;;;;5055987;28;20527;-69
2023/08/11 03:22:45;;;;;;;5.60;5.00;;;17.20;99.90;;;;;;5056222;28;20564;-69
2023/08/11 03:25:11;;;;;;;3.97;3.63;;;17.20;99.90;;;;;;5056036;28;20438;-69
2023/08/11 03:27:41;;;;;;;4.00;3.70;;;17.30;99.90;;;;;;5056218;28;20280;-70
2023/08/11 03:30:12;;;;;;;4.13;3.73;;;17.30;99.90;;;;;;5055995;28;20408;-69
2023/08/11 03:32:38;;;;;;;6.30;3.87;;;17.30;99.90;;;;;;5052529;28;20423;-69
2023/08/11 03:35:05;;;;;;;4.60;4.20;;;17.20;99.90;;;;;;5055510;28;20934;-69
2023/08/11 03:37:32;;;;;;;5.23;4.73;;;17.10;99.90;;;;;;5055376;28;20455;-67
2023/08/11 03:39:58;;;;;;;4.67;4.27;;;17.10;99.90;;;;;;5055818;28;20767;-69
2023/08/11 03:42:23;;;;;;;4.30;3.90;;;17.10;99.90;;;;;;5055825;28;20408;-69
2023/08/11 03:44:51;;;;;;;4.47;4.07;;;17.10;99.90;;;;;;5055598;28;20174;-69
2023/08/11 03:47:17;;;;;;;4.50;4.10;;;17.00;99.90;;;;;;5055798;28;20553;-70
2023/08/11 03:49:43;;;;;;;4.33;3.90;;;16.90;99.90;;;;;;5055466;28;20416;-70
2023/08/11 03:52:08;;;;;;;4.70;4.30;;;16.90;99.90;;;;;;5055568;28;20891;-70
2023/08/11 03:54:34;;;;;;;6.17;3.93;;;16.90;99.90;;;;;;5055574;28;20174;-70
2023/08/11 03:57:00;;;;;;;4.30;3.90;;;16.80;99.90;;;;;;5055378;28;20220;-70
2023/08/11 03:59:26;;;;;;;4.40;4.00;;;16.80;99.90;;;;;;5055339;28;20641;-70
2023/08/11 04:01:52;;;;;;;5.17;4.07;;;16.90;99.90;;;;;;5037482;28;20816;-69
2023/08/11 04:04:18;;;;;;;5.10;4.60;;;17.00;99.90;;;;;;5055441;28;20409;-69
2023/08/11 04:06:44;;;;;;;4.50;4.10;;;16.90;99.90;;;;;;5055230;28;20568;-69
2023/08/11 04:09:10;;;;;;;4.60;4.00;;;16.90;99.90;;;;;;5055256;28;20181;-69
2023/08/11 04:11:36;;;;;;;4.80;4.40;;;16.90;99.90;;;;;;5055202;28;20408;-70
2023/08/11 04:14:01;;;;;;;6.07;4.57;;;17.00;99.90;;;;;;5054487;28;20174;-68
2023/08/11 04:16:28;;;;;;;6.20;4.20;;;16.90;99.90;;;;;;5054773;28;20217;-70
2023/08/11 04:18:53;;;;;;;4.53;4.07;;;17.00;99.90;;;;;;5054818;28;20575;-70
2023/08/11 04:21:19;;;;;;;4.67;4.13;;;17.00;99.90;;;;;;5054977;28;20479;-69
2023/08/11 04:23:45;;;;;;;3.90;3.60;;;16.90;99.90;;;;;;5055052;28;20174;-69
2023/08/11 04:26:10;;;;;;;4.30;3.90;;;16.90;99.90;;;;;;5054869;28;20241;-68
2023/08/11 04:28:38;;;;;;;4.33;3.93;;;16.90;99.90;;;;;;5054705;28;20625;-70
2023/08/11 04:31:06;;;;;;;4.53;4.13;;;16.90;99.90;;;;;;5055214;28;20205;-69
2023/08/11 04:33:32;;;;;;;5.10;4.70;;;17.00;99.90;;;;;;5054815;28;20961;-69
2023/08/11 04:35:58;;;;;;;5.23;4.30;;;17.10;99.90;;;;;;5054924;28;20790;-69
2023/08/11 04:38:23;;;;;;;4.13;3.83;;;17.10;99.90;;;;;;5054652;28;20462;-69
2023/08/11 04:40:50;;;;;;;4.23;3.87;;;17.20;99.90;;;;;;5054882;28;20409;-69
2023/08/11 04:43:16;;;;;;;4.83;4.43;;;17.10;99.90;;;;;;5055360;28;20178;-70
2023/08/11 04:45:42;;;;;;;4.80;4.20;;;17.10;99.90;;;;;;5054690;28;20424;-70
2023/08/11 04:48:07;;;;;;;5.07;4.23;;;17.10;99.90;;;;;;5054868;28;20420;-69
2023/08/11 04:50:34;;;;;;;4.10;3.63;;;17.10;99.90;;;;;;5054336;28;20281;-69
2023/08/11 04:53:00;;;;;;;5.43;4.63;;;17.10;99.90;;;;;;5054323;28;20171;-69
2023/08/11 04:55:26;;;;;;;5.83;4.30;;;17.00;99.90;;;;;;5054515;28;20830;-70
2023/08/11 04:57:51;;;;;;;4.77;4.37;;;17.00;99.90;;;;;;5054681;28;20229;-69
2023/08/11 05:00:17;;;;;;;4.77;4.37;;;17.10;99.90;;;;;;5054373;28;20414;-69
2023/08/11 05:02:44;;;;;;;5.63;4.07;;;17.10;99.90;;;;;;5054638;28;20174;-69
2023/08/11 05:05:11;;;;;;;5.30;3.93;;;17.20;99.90;;;;;;5053951;28;20171;-69
2023/08/11 05:07:37;;;;;;;5.80;4.10;;;17.30;99.90;;;;;;5053930;28;20456;-70
2023/08/11 05:10:04;;;;;;;5.03;4.53;;;17.30;99.90;;;;;;5054108;28;20412;-71
2023/08/11 05:12:30;;;;;;;6.60;5.27;;;17.30;99.90;;;;;;5054216;28;20416;-69
2023/08/11 05:14:56;;;;;;;4.23;3.83;;;17.40;99.90;;;;;;5036279;28;20491;-69
2023/08/11 05:17:21;;;;;;;5.40;4.87;;;17.30;99.90;;;;;;5053868;28;20479;-70
2023/08/11 05:19:47;;;;;;;5.00;4.13;;;17.30;99.90;;;;;;5053996;28;20249;-70
2023/08/11 05:22:12;;;;;;;6.07;5.10;;;17.40;99.90;;;;;;5053789;28;20181;-69
2023/08/11 05:24:38;;;;;;;4.87;4.00;;;17.40;99.90;;;;;;5053498;28;20174;-69
2023/08/11 05:27:04;;;;;;;4.80;4.00;;;17.50;99.90;;;;;;5053563;28;20182;-69
2023/08/11 05:29:30;;;;;;;5.33;4.30;;;17.50;99.90;;;;;;5053479;28;20206;-70
2023/08/11 05:31:55;;;;;;;5.03;4.43;;;17.60;99.90;;;;;;5035731;28;20413;-71
2023/08/11 05:34:22;;;;;;;4.30;3.87;;;17.60;99.90;;;;;;5053221;28;20180;-72
2023/08/11 05:36:48;;;;;;;4.30;3.90;;;17.70;99.90;;;;;;5049010;28;20240;-70
2023/08/11 05:39:14;;;;;;;10.73;5.03;;;17.70;99.90;;;;;;5053389;28;20492;-70
2023/08/11 05:41:40;;;;;;;4.63;3.87;;;17.70;99.90;;;;;;5053308;28;20308;-69
2023/08/11 05:44:06;;;;;;;4.77;3.77;;;17.80;99.90;;;;;;5053184;28;20170;-70
2023/08/11 05:46:31;;;;;;;4.30;3.90;;;18.00;99.90;;;;;;5053122;28;20417;-68
2023/08/11 05:48:57;;;;;;;4.33;3.93;;;18.00;99.90;;;;;;5053077;28;20167;-71
2023/08/11 05:51:23;;;;;;;5.00;3.80;;;18.20;99.90;;;;;;5053175;28;20626;-70
2023/08/11 05:53:48;;;;;;;4.73;4.33;;;18.20;99.90;;;;;;5053396;28;20269;-69
2023/08/11 05:56:14;;;;;;;7.23;4.43;;;18.30;99.90;;;;;;5053056;28;20194;-69
2023/08/11 05:58:40;;;;;;;4.90;4.37;;;18.40;99.90;;;;;;5053254;28;20171;-69
2023/08/11 06:01:06;;;;;;;4.93;4.43;;;18.60;99.90;;;;;;5053009;28;20405;-69
2023/08/11 06:03:31;;;;;;;4.17;3.73;;;18.70;99.90;;;;;;5053418;28;20190;-69
2023/08/11 06:06:00;;;;;;;4.40;4.10;;;18.80;99.90;;;;;;5052892;28;20224;-71
2023/08/11 06:08:27;;;;;;;4.30;3.90;;;18.90;99.90;;;;;;5053326;28;20629;-69
2023/08/11 06:10:54;;;;;;;4.93;4.10;;;19.00;99.90;;;;;;5052767;28;20509;-70
2023/08/11 06:13:20;;;;;;;4.80;3.83;;;19.10;99.90;;;;;;5053434;28;20848;-70
2023/08/11 06:15:46;;;;;;;7.93;4.60;;;19.10;99.90;;;;;;5052512;28;20451;-70
2023/08/11 06:18:12;;;;;;;4.80;4.30;;;19.30;99.90;;;;;;5052813;28;20735;-70
2023/08/11 06:20:37;;;;;;;4.60;4.20;;;19.50;99.90;;;;;;5053280;28;20167;-70
2023/08/11 06:23:03;;;;;;;6.20;4.13;;;19.60;99.90;;;;;;5055867;28;20166;-71
2023/08/11 06:25:29;;;;;;;5.00;4.50;;;19.70;99.90;;;;;;5054906;28;20183;-71
2023/08/11 06:27:54;;;;;;;4.63;4.20;;;19.90;99.90;;;;;;5053754;28;20275;-71
2023/08/11 06:30:20;;;;;;;4.30;3.83;;;20.00;99.90;;;;;;5053813;28;20724;-71
2023/08/11 06:32:45;;;;;;;4.60;3.87;;;20.20;99.90;;;;;;5053147;28;20540;-70
2023/08/11 06:35:11;;;;;;;6.23;4.50;;;20.30;99.90;;;;;;5052358;28;20178;-70
2023/08/11 06:37:36;;;;;;;6.30;3.87;;;20.40;99.90;;;;;;5051745;28;20233;-70
2023/08/11 06:40:03;;;;;;;5.03;4.53;;;20.50;99.90;;;;;;5052805;28;20193;-70
2023/08/11 06:42:28;;;;;;;4.40;4.00;;;20.60;99.90;;;;;;5052917;28;20167;-70
2023/08/11 06:44:54;;;;;;;5.27;4.77;;;20.70;99.90;;;;;;5057230;28;20427;-70
2023/08/11 06:47:19;;;;;;;4.47;4.07;;;20.90;99.90;;;;;;5065247;28;20247;-70
2023/08/11 06:49:45;;;;;;;5.47;3.80;;;20.90;99.90;;;;;;5066553;28;20255;-70
2023/08/11 06:52:11;;;;;;;4.70;4.20;;;21.10;99.90;;;;;;5067229;28;20645;-70
2023/08/11 06:54:37;;;;;;;5.23;4.73;;;21.20;99.90;;;;;;5067077;28;20158;-70
2023/08/11 06:57:03;;;;;;;5.70;5.10;;;21.30;99.90;;;;;;5066878;28;20451;-70
2023/08/11 06:59:29;;;;;;;5.57;4.67;;;21.40;99.90;;;;;;5066983;28;20173;-70
2023/08/11 07:01:54;;;;;;;5.20;4.00;;;21.30;99.90;;;;;;5067422;28;20476;-71
2023/08/11 07:04:20;;;;;;;5.40;3.83;;;21.40;99.90;;;;;;5066126;28;20165;-71
2023/08/11 07:06:46;;;;;;;6.93;4.77;;;21.50;99.90;;;;;;5065041;28;20245;-71
2023/08/11 07:09:12;;;;;;;5.43;4.50;;;21.60;99.90;;;;;;5067112;28;20416;-70
2023/08/11 07:11:38;;;;;;;6.70;4.63;;;21.80;99.90;;;;;;5060284;28;20171;-71
2023/08/11 07:14:03;;;;;;;6.13;4.73;;;21.60;99.90;;;;;;5052585;28;20166;-71
2023/08/11 07:16:29;;;;;;;4.83;4.43;;;21.10;99.90;;;;;;5052265;28;20467;-71
2023/08/11 07:18:55;;;;;;;5.50;4.77;;;20.90;99.90;;;;;;5054492;28;20182;-71
2023/08/11 07:21:20;;;;;;;8.33;4.70;;;20.80;99.90;;;;;;5052563;28;20185;-70
2023/08/11 07:23:46;;;;;;;6.77;5.00;;;20.90;99.90;;;;;;5052192;28;20175;-70
2023/08/11 07:26:11;;;;;;;6.40;5.23;;;21.00;99.90;;;;;;5052241;28;20194;-70
2023/08/11 07:28:37;;;;;;;5.73;4.70;;;20.90;99.90;;;;;;5052411;28;20526;-70
2023/08/11 07:31:02;;;;;;;6.83;4.70;;;20.90;99.90;;;;;;5052089;28;20179;-71
2023/08/11 07:33:28;;;;;;;6.50;5.03;;;20.90;99.90;;;;;;5034177;28;20198;-71
2023/08/11 07:35:53;;;;;;;6.67;5.47;;;21.30;99.90;;;;;;5051381;28;20185;-71
2023/08/11 07:38:20;;;;;;;6.30;5.00;;;21.60;99.90;;;;;;5051586;28;20191;-70
2023/08/11 07:40:48;;;;;;;5.20;4.57;;;22.00;99.90;;;;;;5051683;28;20167;-70
2023/08/11 07:43:14;;;;;;;9.40;5.00;;;22.10;99.90;;;;;;5051820;28;20463;-70
2023/08/11 07:45:40;;;;;;;5.90;5.23;;;22.20;99.90;;;;;;5051529;28;20409;-71
2023/08/11 07:48:06;;;;;;;7.27;4.90;;;22.20;99.90;;;;;;5053616;28;20224;-69
2023/08/11 07:50:35;;;;;;;6.10;5.17;;;22.30;99.90;;;;;;5055338;28;20594;-71
2023/08/11 07:53:01;;;;;;;7.33;4.80;;;22.40;99.90;;;;;;5055192;28;20412;-71
2023/08/11 07:55:26;;;;;;;5.90;4.60;;;22.70;99.90;;;;;;5055295;28;20417;-71
2023/08/11 07:57:52;;;;;;;6.77;4.87;;;22.70;99.90;;;;;;5055182;28;20202;-71
2023/08/11 08:00:20;;;;;;;5.40;4.80;;;22.70;99.90;;;;;;5055554;28;20174;-70
2023/08/11 08:02:46;;;;;;;5.37;4.60;;;22.80;99.90;;;;;;5055684;28;20163;-70
2023/08/11 08:05:12;;;;;;;5.40;4.73;;;22.90;99.90;;;;;;5054792;28;20961;-71
2023/08/11 08:07:38;;;;;;;6.13;5.00;;;23.00;99.90;;;;;;5054863;28;20190;-71
2023/08/11 08:10:08;;;;;;;6.20;4.10;;;23.20;99.90;;;;;;5055354;28;20167;-71
2023/08/11 08:12:38;;;;;;;6.43;4.43;;;23.00;99.90;;;;;;5054746;28;20219;-69
2023/08/11 08:15:06;;;;;;;6.63;4.73;;;22.90;99.90;;;;;;5054942;28;20401;-70
2023/08/11 08:17:31;;;;;;;8.73;4.83;;;22.80;99.90;;;;;;5055171;28;20824;-68
2023/08/11 08:19:57;;;;;;;6.30;4.80;;;22.80;99.90;;;;;;5054967;28;20417;-69
2023/08/11 08:22:23;;;;;;;5.57;4.20;;;23.00;99.90;;;;;;5054516;28;20518;-69
2023/08/11 08:24:49;;;;;;;6.80;4.30;;;23.10;99.90;;;;;;5037164;28;20169;-69
2023/08/11 08:27:17;;;;;;;5.10;4.60;;;23.20;99.90;;;;;;5054512;28;20691;-69
2023/08/11 08:29:42;;;;;;;6.57;4.13;;;23.20;99.90;;;;;;5054749;28;20406;-69
2023/08/11 08:32:08;;;;;;;5.33;4.60;;;23.20;99.90;;;;;;5053571;28;20764;-70
2023/08/11 08:34:33;;;;;;;6.20;4.37;;;23.30;99.90;;;;;;5054453;28;20171;-69
2023/08/11 08:36:59;;;;;;;11.50;4.73;;;23.40;99.90;;;;;;5054540;28;20194;-70
2023/08/11 08:39:25;;;;;;;5.20;4.80;;;23.60;99.90;;;;;;5054491;28;20193;-69
2023/08/11 08:41:53;;;;;;;5.17;4.37;;;23.70;99.90;;;;;;5054605;28;20162;-70
2023/08/11 08:44:20;;;;;;;4.97;4.10;;;24.00;99.90;;;;;;5054056;28;20498;-69
2023/08/11 08:46:48;;;;;;;5.63;5.00;;;24.00;99.90;;;;;;5054440;28;20824;-69
2023/08/11 08:49:23;;;;;;;4.90;4.47;;;24.40;99.90;;;;;;5054346;28;20409;-69
2023/08/11 08:51:49;;;;;;;4.97;4.20;;;24.30;99.90;;;;;;5054627;28;20534;-69
2023/08/11 08:54:15;;;;;;;6.10;4.43;;;24.30;99.90;;;;;;5054608;28;20446;-69
2023/08/11 08:56:41;;;;;;;5.03;4.60;;;24.30;99.90;;;;;;5054319;28;20205;-69
2023/08/11 08:59:07;;;;;;;4.67;4.27;;;24.60;99.90;;;;;;5053773;28;20789;-69
2023/08/11 09:01:35;;;;;;;9.20;4.93;;;24.70;99.90;;;;;;5054520;28;20189;-69
2023/08/11 09:04:01;;;;;;;7.53;5.17;;;24.50;99.90;;;;;;5053831;28;20398;-69
2023/08/11 09:06:27;;;;;;;6.40;4.27;;;24.70;99.90;;;;;;5054231;28;20413;-69
2023/08/11 09:08:52;;;;;;;6.63;4.93;;;24.70;99.90;;;;;;5054546;28;20822;-69
2023/08/11 09:11:19;;;;;;;4.10;3.70;;;24.70;99.90;;;;;;5054128;28;20159;-69
2023/08/11 09:13:45;;;;;;;5.00;4.50;;;24.90;99.90;;;;;;5054178;28;20178;-69
2023/08/11 09:16:11;;;;;;;4.20;3.80;;;25.00;99.90;;;;;;5054024;28;20453;-68
2023/08/11 09:18:37;;;;;;;5.60;4.37;;;25.00;99.90;;;;;;5036060;28;20437;-69
2023/08/11 09:21:03;;;;;;;5.23;4.47;;;25.20;99.90;;;;;;5054296;28;20398;-70
2023/08/11 09:23:29;;;;;;;5.30;4.20;;;25.20;99.90;;;;;;5054069;28;20167;-70
2023/08/11 09:25:55;;;;;;;7.97;4.10;;;25.20;99.90;;;;;;5054138;28;20231;-70
2023/08/11 09:28:21;;;;;;;10.20;4.67;;;25.40;99.90;;;;;;5053903;28;20983;-70
2023/08/11 09:30:48;;;;;;;7.43;4.37;;;25.40;99.90;;;;;;5053898;28;20167;-70
2023/08/11 09:33:14;;;;;;;9.13;4.90;;;25.50;99.90;;;;;;5053593;28;20424;-70
2023/08/11 09:35:41;;;;;;;5.80;4.60;;;25.50;99.90;;;;;;5053521;28;20409;-69
2023/08/11 09:38:07;;;;;;;6.47;4.87;;;25.60;99.90;;;;;;5035923;28;20617;-69
2023/08/11 09:40:32;;;;;;;5.73;4.40;;;25.80;99.90;;;;;;5053833;28;20412;-69
2023/08/11 09:42:59;;;;;;;6.50;5.10;;;25.80;99.90;;;;;;5053789;28;20907;-69
2023/08/11 09:45:24;;;;;;;6.23;3.90;;;25.90;99.90;;;;;;5053475;28;20646;-69
2023/08/11 09:47:50;;;;;;;4.30;3.90;;;25.90;99.90;;;;;;5048914;28;20423;-70
2023/08/11 09:50:15;;;;;;;4.30;3.90;;;26.10;99.90;;;;;;5053136;28;20202;-70
2023/08/11 09:52:43;;;;;;;5.43;4.93;;;26.40;99.90;;;;;;5053354;28;20170;-69
2023/08/11 09:55:12;;;;;;;5.30;4.20;;;26.40;99.90;;;;;;5053352;28;20178;-69
2023/08/11 09:57:40;;;;;;;6.77;4.67;;;26.10;99.90;;;;;;5053364;28;20457;-70
2023/08/11 10:00:11;;;;;;;4.43;3.80;;;26.10;99.90;;;;;;5053559;28;20435;-69
2023/08/11 10:02:41;;;;;;;9.13;3.90;;;26.00;99.90;;;;;;5052962;28;20808;-69
2023/08/11 10:05:08;;;;;;;4.20;3.80;;;26.10;99.90;;;;;;5052880;28;20801;-71
2023/08/11 10:07:39;;;;;;;4.17;3.73;;;26.30;99.90;;;;;;5053490;28;20430;-70
2023/08/11 10:10:09;;;;;;;4.57;4.00;;;26.60;99.90;;;;;;5053241;28;20393;-69
2023/08/11 10:12:40;;;;;;;5.20;4.43;;;26.70;99.90;;;;;;5052376;28;20413;-70
2023/08/11 10:15:08;;;;;;;3.53;3.23;;;26.70;99.90;;;;;;5053519;28;20408;-70
2023/08/11 10:17:34;;;;;;;4.40;3.80;;;26.80;99.90;;;;;;5052397;28;20456;-70
2023/08/11 10:20:04;;;;;;;4.70;4.00;;;26.60;99.90;;;;;;5052873;28;20812;-70
2023/08/11 10:22:33;;;;;;;6.03;4.27;;;26.40;99.90;;;;;;5053176;28;20401;-69
2023/08/11 10:25:01;;;;;;;4.03;3.63;;;26.70;99.90;;;;;;5052725;28;20492;-69
2023/08/11 10:27:28;;;;;;;4.00;3.60;;;27.00;99.90;;;;;;5052686;28;20440;-69
2023/08/11 10:29:55;;;;;;;3.90;3.60;;;27.20;99.90;;;;;;5052977;28;20543;-70
2023/08/11 10:32:23;;;;;;;3.80;3.50;;;27.40;99.60;;;;;;5051997;28;20420;-69
2023/08/11 10:34:50;;;;;;;4.30;3.93;;;27.60;99.40;;;;;;5052485;28;20405;-70
2023/08/11 10:37:15;;;;;;;4.03;3.70;;;27.70;99.40;;;;;;5052797;28;20460;-70
2023/08/11 10:39:41;;;;;;;4.40;4.00;;;28.00;99.40;;;;;;5052834;28;20488;-69
2023/08/11 10:42:11;;;;;;;4.37;3.50;;;28.20;98.20;;;;;;5052889;28;20693;-69
2023/08/11 10:44:43;;;;;;;3.77;3.47;;;28.00;98.10;;;;;;5052513;28;20151;-70
2023/08/11 10:47:08;;;;;;;5.03;4.50;;;27.80;98.20;;;;;;5052382;28;20935;-69
2023/08/11 10:49:40;;;;;;;4.17;3.77;;;27.80;98.30;;;;;;5052036;28;20475;-69
2023/08/11 10:52:05;;;;;;;7.30;3.63;;;27.90;98.20;;;;;;5049121;28;20158;-70
2023/08/11 10:54:32;;;;;;;4.40;4.00;;;28.10;97.90;;;;;;5052099;28;20406;-68
2023/08/11 10:57:01;;;;;;;6.60;5.07;;;28.00;98.10;;;;;;5052273;28;20559;-70
2023/08/11 10:59:31;;;;;;;4.30;3.93;;;28.10;97.70;;;;;;5052232;28;20423;-70
2023/08/11 11:01:59;;;;;;;4.53;4.13;;;29.40;96.10;;;;;;5052409;28;20394;-70
2023/08/11 11:04:31;;;;;;;4.50;3.57;;;31.00;94.80;;;;;;5051809;28;20412;-70
2023/08/11 11:06:58;;;;;;;8.67;4.50;;;33.40;91.20;;;;;;5052140;28;20429;-70
2023/08/11 11:09:24;;;;;;;3.70;3.40;;;33.50;88.30;;;;;;5052251;28;20409;-70
2023/08/11 11:11:51;;;;;;;6.40;3.83;;;33.60;83.90;;;;;;5052531;28;20412;-70
2023/08/11 11:14:16;;;;;;;3.70;3.40;;;34.30;81.20;;;;;;5052232;28;20186;-70
2023/08/11 11:16:42;;;;;;;5.53;4.10;;;34.50;77.70;;;;;;5052054;28;20453;-70
2023/08/11 11:19:09;;;;;;;5.63;3.63;;;33.90;78.40;;;;;;5051808;28;20580;-70
2023/08/11 11:21:41;;;;;;;6.23;3.70;;;33.30;79.80;;;;;;5052255;28;20171;-70
2023/08/11 11:24:08;;;;;;;4.13;3.83;;;34.20;78.50;;;;;;5051710;28;20385;-71
2023/08/11 11:26:34;;;;;;;5.30;3.37;;;33.80;78.10;;;;;;5056045;28;20417;-70
2023/08/11 11:29:01;;;;;;;4.80;3.13;;;33.50;79.30;;;;;;5056389;28;20840;-70
2023/08/11 11:31:29;;;;;;;3.73;3.43;;;34.00;76.60;;;;;;5056246;28;20163;-70
2023/08/11 11:33:55;;;;;;;3.63;3.10;;;34.80;74.40;;;;;;5055659;28;20459;-71
2023/08/11 11:36:23;;;;;;;5.33;3.30;;;35.60;73.00;;;;;;5055668;28;20433;-70
2023/08/11 11:38:49;;;;;;;4.27;3.87;;;37.20;71.10;;;;;;5055965;28;20460;-68
2023/08/11 11:41:17;;;;;;;4.00;3.60;;;37.60;66.40;;;;;;5055974;28;20795;-68
2023/08/11 11:43:48;;;;;;;3.47;3.17;;;37.40;64.30;;;;;;5055860;28;20408;-68
2023/08/11 11:46:15;;;;;;;3.80;3.50;;;36.20;67.30;;;;;;5055728;28;20515;-69
2023/08/11 11:48:50;;;;;;;3.87;3.57;;;35.70;67.10;;;;;;5055671;28;20409;-71
2023/08/11 11:51:20;;;;;;;4.17;3.80;;;35.40;68.60;;;;;;5055248;28;20923;-69
2023/08/11 11:53:50;;;;;;;3.90;3.60;;;35.60;66.80;;;;;;5055655;28;20405;-68
2023/08/11 11:56:17;;;;;;;3.93;3.63;;;35.00;68.00;;;;;;5052194;28;20436;-71
2023/08/11 11:58:43;;;;;;;5.07;3.70;;;35.70;66.80;;;;;;5055539;28;20799;-68
2023/08/11 12:01:13;;;;;;;3.77;3.47;;;37.40;65.40;;;;;;5055764;28;20479;-69
2023/08/11 12:03:39;;;;;;;3.83;3.43;;;39.40;60.60;;;;;;5054802;28;20409;-69
2023/08/11 12:06:06;;;;;;;3.50;3.20;;;39.50;57.80;;;;;;5055437;28;20490;-70
2023/08/11 12:08:34;;;;;;;5.97;3.63;;;39.90;57.40;;;;;;5055645;28;20801;-67
2023/08/11 12:11:00;;;;;;;3.50;3.20;;;40.00;55.20;;;;;;5055312;28;20467;-69
2023/08/11 12:13:26;;;;;;;3.97;3.43;;;38.50;57.60;;;;;;5055283;28;20436;-70
2023/08/11 12:15:52;;;;;;;3.40;3.10;;;38.80;55.90;;;;;;5055041;28;20449;-70
2023/08/11 12:18:19;;;;;;;3.00;2.80;;;38.60;55.90;;;;;;5055067;28;20273;-69
2023/08/11 12:20:45;;;;;;;3.47;3.17;;;37.30;57.40;;;;;;5054944;28;20786;-70
2023/08/11 12:23:10;;;;;;;4.40;3.80;;;38.30;57.20;;;;;;5055116;28;20405;-70
2023/08/11 12:25:36;;;;;;;4.40;3.30;;;39.60;55.00;;;;;;5055036;28;20688;-70
2023/08/11 12:28:02;;;;;;;6.10;3.77;;;38.30;55.20;;;;;;5054916;28;20273;-69
2023/08/11 12:30:28;;;;;;;3.50;3.20;;;36.20;57.80;;;;;;5055306;28;20253;-69
2023/08/11 12:32:54;;;;;;;4.23;3.63;;;36.00;58.30;;;;;;5036535;28;20839;-69
2023/08/11 12:35:20;;;;;;;3.90;3.50;;;35.90;60.00;;;;;;5054462;28;20315;-70
2023/08/11 12:37:46;;;;;;;4.00;3.50;;;36.60;58.30;;;;;;5054819;28;20977;-71
2023/08/11 12:40:12;;;;;;;3.80;3.50;;;37.20;57.20;;;;;;5054778;28;20170;-71
2023/08/11 12:42:37;;;;;;;3.83;3.47;;;37.10;57.80;;;;;;5054798;28;20420;-70
2023/08/11 12:45:04;;;;;;;4.43;4.13;;;38.50;56.20;;;;;;5054524;28;20273;-70
2023/08/11 12:47:30;;;;;;;3.90;3.50;;;39.60;52.80;;;;;;5054524;28;20197;-71
2023/08/11 12:49:57;;;;;;;3.63;3.33;;;38.60;54.30;;;;;;5054254;28;20397;-71
2023/08/11 12:52:23;;;;;;;4.00;3.70;;;37.00;56.80;;;;;;5054586;28;20166;-72
2023/08/11 12:54:48;;;;;;;3.90;3.60;;;37.70;56.80;;;;;;5054467;28;20408;-72
2023/08/11 12:57:14;;;;;;;4.00;3.60;;;37.10;57.30;;;;;;5054697;28;20364;-72
2023/08/11 12:59:39;;;;;;;4.03;3.73;;;36.50;57.50;;;;;;5054833;28;20220;-72
2023/08/11 13:02:05;;;;;;;3.77;3.47;;;37.20;56.00;;;;;;5054378;28;20651;-72
2023/08/11 13:04:30;;;;;;;3.27;3.00;;;37.80;55.00;;;;;;5054005;28;20185;-72
2023/08/11 13:06:56;;;;;;;4.00;3.60;;;38.00;55.90;;;;;;5053970;28;20194;-71